Time;durP1;ratioP1;P1;durP2;ratioP2;P2;SDS_P1;SDS_P2;PMS_P1;PMS_P2;Temp;Humidity;BMP_temperature;BMP_pressure;BME280_temperature;BME280_humidity;BME280_pressure;Samples;Min_cycle;Max_cycle;Signal;HPM_P1;HPM_P2
2023/12/16 00:01:32;;;;;;;10.70;9.70;;;;;;;6.56;85.66;100275.16;5049241;28;20257;-74
2023/12/16 00:03:59;;;;;;;11.88;10.77;;;;;;;6.59;85.25;100285.69;5064207;28;20208;-74
2023/12/16 00:06:25;;;;;;;11.60;10.45;;;;;;;6.67;85.17;100282.41;5062596;28;20209;-74
2023/12/16 00:08:53;;;;;;;10.65;9.55;;;;;;;6.64;85.20;100271.88;5063539;28;20199;-74
2023/12/16 00:11:21;;;;;;;11.60;9.95;;;;;;;6.33;86.41;100273.44;5098936;28;20681;-74
2023/12/16 00:13:48;;;;;;;12.13;10.85;;;;;;;6.28;86.46;100275.63;5044812;28;20719;-74
2023/12/16 00:16:14;;;;;;;10.52;9.52;;;;;;;6.50;85.83;100270.28;5066150;28;20196;-74
2023/12/16 00:18:41;;;;;;;12.50;11.30;;;;;;;6.52;85.52;100268.31;5063538;28;20224;-74
2023/12/16 00:21:08;;;;;;;10.63;9.63;;;;;;;6.63;84.72;100270.16;5080067;28;20207;-73
2023/12/16 00:23:34;;;;;;;11.60;10.60;;;;;;;6.60;84.44;100270.41;5063493;28;20210;-73
2023/12/16 00:26:03;;;;;;;11.32;10.23;;;;;;;6.52;85.32;100273.69;5065011;28;20398;-74
2023/12/16 00:28:30;;;;;;;11.77;9.55;;;;;;;6.63;84.66;100262.09;5047049;28;20196;-73
2023/12/16 00:30:57;;;;;;;10.05;9.05;;;;;;;6.60;84.53;100255.13;5064490;28;20195;-74
2023/12/16 00:33:24;;;;;;;10.52;9.52;;;;;;;6.69;83.51;100251.72;5071589;28;20207;-73
2023/12/16 00:35:50;;;;;;;10.27;9.27;;;;;;;6.45;84.07;100259.03;5064292;28;20279;-74
2023/12/16 00:38:17;;;;;;;9.75;8.77;;;;;;;6.33;85.07;100268.06;5060993;28;20223;-74
2023/12/16 00:40:44;;;;;;;10.57;9.52;;;;;;;6.38;85.49;100272.13;5060890;28;20214;-74
2023/12/16 00:43:12;;;;;;;9.43;8.40;;;;;;;6.28;86.47;100275.63;5061015;28;20199;-74
2023/12/16 00:45:39;;;;;;;9.68;8.75;;;;;;;6.55;85.13;100265.38;5047584;28;20217;-74
2023/12/16 00:48:06;;;;;;;10.70;9.80;;;;;;;6.43;84.36;100278.97;5062605;28;20199;-74
2023/12/16 00:50:32;;;;;;;9.50;8.60;;;;;;;6.31;84.56;100280.78;5083246;28;20212;-74
2023/12/16 00:52:59;;;;;;;10.70;9.50;;;;;;;6.32;84.33;100287.88;5096441;28;20254;-74
2023/12/16 00:55:25;;;;;;;11.80;9.18;;;;;;;6.34;84.18;100286.78;5077748;28;20211;-74
2023/12/16 00:57:52;;;;;;;9.80;8.90;;;;;;;6.50;83.81;100291.78;5062971;28;20566;-74
2023/12/16 01:00:20;;;;;;;9.90;8.93;;;;;;;6.53;83.88;100302.31;5061019;28;20206;-74
2023/12/16 01:02:46;;;;;;;9.35;8.48;;;;;;;6.65;83.57;100304.03;5063205;28;20199;-74
2023/12/16 01:05:13;;;;;;;9.05;8.23;;;;;;;6.53;83.81;100307.69;5079522;28;20204;-74
2023/12/16 01:07:39;;;;;;;10.65;9.63;;;;;;;6.38;84.32;100304.38;5064405;28;20200;-74
2023/12/16 01:10:07;;;;;;;10.38;9.38;;;;;;;6.53;83.50;100304.16;5062700;28;20287;-74
2023/12/16 01:12:33;;;;;;;10.40;9.40;;;;;;;6.55;83.36;100315.63;5075113;28;20283;-74
2023/12/16 01:15:00;;;;;;;10.73;9.70;;;;;;;6.60;83.60;100318.84;5064357;28;20759;-74
2023/12/16 01:17:28;;;;;;;10.00;9.20;;;;;;;6.51;83.58;100315.03;5061739;28;20735;-74
2023/12/16 01:19:54;;;;;;;9.63;8.75;;;;;;;6.46;84.19;100316.38;5045830;28;20201;-74
2023/12/16 01:22:21;;;;;;;10.95;9.90;;;;;;;6.50;83.64;100317.88;5063407;28;20211;-74
2023/12/16 01:24:48;;;;;;;10.57;9.50;;;;;;;6.45;83.28;100311.97;5094329;28;20200;-74
2023/12/16 01:27:14;;;;;;;10.95;9.90;;;;;;;6.60;82.66;100314.31;5062757;28;20226;-74
2023/12/16 01:29:41;;;;;;;10.13;9.23;;;;;;;6.41;83.05;100297.91;5062518;28;20633;-74
2023/12/16 01:32:08;;;;;;;10.75;9.63;;;;;;;6.63;82.76;100319.44;5058947;28;20556;-74
2023/12/16 01:34:36;;;;;;;10.88;9.85;;;;;;;6.58;83.24;100310.88;5063357;28;20212;-74
2023/12/16 01:37:03;;;;;;;12.32;9.70;;;;;;;6.36;83.99;100311.72;5061149;28;20666;-74
2023/12/16 01:39:30;;;;;;;10.20;9.30;;;;;;;6.31;84.53;100303.16;5062859;28;20222;-74
2023/12/16 01:41:56;;;;;;;11.98;10.80;;;;;;;6.31;84.43;100308.53;5060570;28;20211;-74
2023/12/16 01:44:23;;;;;;;10.57;9.50;;;;;;;6.35;84.07;100309.16;5062036;28;20199;-74
2023/12/16 01:46:50;;;;;;;11.32;10.18;;;;;;;6.17;85.14;100305.22;5062555;28;20676;-74
2023/12/16 01:49:16;;;;;;;11.95;10.85;;;;;;;6.52;83.96;100305.13;5079211;28;20283;-74
2023/12/16 01:51:45;;;;;;;11.40;10.35;;;;;;;6.53;83.64;100299.63;5064172;28;20203;-74
2023/12/16 01:54:12;;;;;;;11.05;10.05;;;;;;;6.51;83.73;100298.88;5062182;28;20287;-74
2023/12/16 01:56:39;;;;;;;9.93;9.05;;;;;;;6.55;83.92;100308.44;5054360;28;20283;-74
2023/12/16 01:59:06;;;;;;;12.25;9.50;;;;;;;6.31;84.30;100307.66;5044546;28;20224;-74
2023/12/16 02:01:33;;;;;;;10.07;9.18;;;;;;;6.57;83.96;100308.31;5078729;28;20198;-74
2023/12/16 02:04:00;;;;;;;10.13;9.23;;;;;;;6.70;83.06;100318.00;5061585;28;20290;-74
2023/12/16 02:06:27;;;;;;;10.07;9.18;;;;;;;6.46;84.10;100311.88;5052649;28;20185;-74
2023/12/16 02:08:55;;;;;;;10.65;9.35;;;;;;;6.62;83.55;100296.22;5080451;28;20196;-74
2023/12/16 02:11:21;;;;;;;10.57;9.63;;;;;;;6.60;83.68;100305.38;5063024;28;20211;-74
2023/12/16 02:13:50;;;;;;;9.45;8.65;;;;;;;6.47;84.83;100318.09;5056251;28;20245;-74
2023/12/16 02:16:17;;;;;;;9.90;9.00;;;;;;;6.29;85.80;100315.84;5062950;28;20207;-74
2023/12/16 02:18:44;;;;;;;11.85;10.75;;;;;;;6.39;84.83;100305.25;5060509;28;20216;-74
2023/12/16 02:21:10;;;;;;;11.68;9.68;;;;;;;6.38;84.48;100320.53;5025464;28;20204;-74
2023/12/16 02:23:39;;;;;;;10.90;9.90;;;;;;;6.58;83.83;100316.25;5095249;28;21236;-74
2023/12/16 02:26:06;;;;;;;10.95;10.05;;;;;;;6.46;84.08;100317.25;5062088;28;20229;-74
2023/12/16 02:28:32;;;;;;;12.82;11.55;;;;;;;6.42;84.05;100321.16;5061106;28;20196;-74
2023/12/16 02:30:59;;;;;;;10.60;9.60;;;;;;;6.27;84.65;100333.06;5078211;28;20195;-74
2023/12/16 02:33:26;;;;;;;11.60;10.50;;;;;;;6.26;85.41;100334.06;5061962;28;20209;-74
2023/12/16 02:35:52;;;;;;;10.82;9.43;;;;;;;6.29;84.90;100337.38;5061407;28;20418;-74
2023/12/16 02:38:19;;;;;;;11.77;10.68;;;;;;;6.32;84.89;100329.06;5062364;28;20228;-74
2023/12/16 02:40:48;;;;;;;12.38;10.48;;;;;;;6.24;84.79;100333.31;5063161;28;20215;-74
2023/12/16 02:43:14;;;;;;;10.38;9.38;;;;;;;6.43;83.97;100330.06;5060277;28;20200;-74
2023/12/16 02:45:41;;;;;;;12.60;9.38;;;;;;;6.39;84.32;100329.44;5061805;28;20196;-74
2023/12/16 02:48:09;;;;;;;9.38;8.57;;;;;;;6.46;84.46;100328.00;5052118;28;20195;-74
2023/12/16 02:50:35;;;;;;;11.45;10.25;;;;;;;6.36;84.27;100321.63;5080431;28;20196;-74
2023/12/16 02:53:02;;;;;;;10.73;9.70;;;;;;;6.38;84.24;100325.91;5082952;28;20564;-73
2023/12/16 02:55:30;;;;;;;10.30;9.30;;;;;;;6.39;83.98;100316.00;5080469;28;20286;-75
2023/12/16 02:57:58;;;;;;;10.75;9.65;;;;;;;6.22;84.77;100324.50;5079644;28;20196;-74
2023/12/16 03:00:24;;;;;;;12.27;10.35;;;;;;;6.28;84.93;100329.41;5066412;28;20761;-74
2023/12/16 03:02:51;;;;;;;10.10;9.15;;;;;;;6.18;84.84;100333.78;5083408;28;20545;-74
2023/12/16 03:05:17;;;;;;;10.98;9.38;;;;;;;6.38;84.16;100330.44;5083677;28;20618;-74
2023/12/16 03:07:44;;;;;;;11.68;10.45;;;;;;;6.45;84.26;100341.56;5079483;28;20200;-74
2023/12/16 03:10:10;;;;;;;10.40;9.50;;;;;;;6.27;85.69;100343.81;5063576;28;20205;-74
2023/12/16 03:12:37;;;;;;;10.32;9.32;;;;;;;6.38;85.04;100354.63;5064770;28;20200;-74
2023/12/16 03:15:09;;;;;;;10.80;9.80;;;;;;;6.43;83.93;100343.53;5083136;28;20211;-74
2023/12/16 03:17:36;;;;;;;11.65;10.30;;;;;;;6.40;84.00;100345.47;5084471;28;20210;-74
2023/12/16 03:20:04;;;;;;;11.40;10.30;;;;;;;6.28;84.47;100341.03;5065501;28;20300;-74
2023/12/16 03:22:30;;;;;;;11.32;10.23;;;;;;;6.28;84.57;100342.84;5050998;28;20570;-74
2023/12/16 03:24:57;;;;;;;11.45;10.43;;;;;;;6.32;84.54;100347.03;5065057;28;20212;-74
2023/12/16 03:27:23;;;;;;;12.48;11.38;;;;;;;6.23;84.70;100339.66;5077921;28;20212;-74
2023/12/16 03:29:50;;;;;;;11.20;10.10;;;;;;;6.13;85.41;100338.66;5063465;28;20196;-74
2023/12/16 03:32:17;;;;;;;9.50;8.63;;;;;;;6.13;85.33;100341.38;5064175;28;20200;-74
2023/12/16 03:34:44;;;;;;;10.40;9.45;;;;;;;6.28;85.06;100341.03;5064728;28;20682;-74
2023/12/16 03:37:12;;;;;;;10.75;9.77;;;;;;;6.32;85.13;100338.97;5046105;28;20197;-75
2023/12/16 03:39:40;;;;;;;11.35;10.25;;;;;;;6.73;82.96;100343.81;5065326;28;20319;-74
2023/12/16 03:42:07;;;;;;;11.23;9.98;;;;;;;6.34;84.26;100340.56;5080331;28;20200;-74
2023/12/16 03:44:34;;;;;;;10.98;10.07;;;;;;;6.40;84.44;100344.63;5079842;28;20208;-74
2023/12/16 03:47:02;;;;;;;11.10;10.02;;;;;;;6.33;85.31;100346.91;5063232;28;20215;-74
2023/12/16 03:49:30;;;;;;;10.70;9.65;;;;;;;6.55;84.25;100343.41;5064301;28;20207;-74
2023/12/16 03:51:56;;;;;;;11.90;10.70;;;;;;;6.58;83.88;100337.78;5082873;28;20211;-74
2023/12/16 03:54:23;;;;;;;11.00;9.90;;;;;;;6.39;85.80;100337.50;5047778;28;20196;-74
2023/12/16 03:56:49;;;;;;;10.75;9.65;;;;;;;6.48;85.61;100328.75;5061796;28;20200;-74
2023/12/16 03:59:17;;;;;;;12.75;9.50;;;;;;;6.39;86.09;100330.31;5082959;28;20220;-74
2023/12/16 04:01:45;;;;;;;11.18;9.98;;;;;;;6.53;85.26;100334.59;5081589;28;20200;-74
2023/12/16 04:04:11;;;;;;;11.07;10.07;;;;;;;6.61;84.41;100336.69;5065378;28;20196;-74
2023/12/16 04:06:40;;;;;;;11.55;10.43;;;;;;;6.68;83.89;100330.72;5064240;28;20222;-74
2023/12/16 04:09:06;;;;;;;11.27;10.27;;;;;;;6.82;83.18;100339.53;5081869;28;20200;-74
2023/12/16 04:11:33;;;;;;;10.25;9.43;;;;;;;6.67;83.46;100342.44;5076198;28;20204;-74
2023/12/16 04:13:59;;;;;;;11.00;9.98;;;;;;;6.31;85.25;100340.78;5062763;28;20601;-74
2023/12/16 04:16:26;;;;;;;11.25;10.05;;;;;;;6.54;84.73;100351.59;5063040;28;20206;-74
2023/12/16 04:18:53;;;;;;;10.75;9.75;;;;;;;6.60;83.91;100349.28;5078856;28;20214;-74
2023/12/16 04:21:19;;;;;;;11.70;10.50;;;;;;;6.47;84.54;100351.22;5046630;28;20208;-74
2023/12/16 04:23:47;;;;;;;11.85;10.75;;;;;;;6.25;85.86;100353.84;5047399;28;20204;-74
2023/12/16 04:26:14;;;;;;;11.30;10.30;;;;;;;6.04;87.34;100349.16;5071380;28;20574;-74
2023/12/16 04:28:40;;;;;;;12.30;11.20;;;;;;;6.24;86.63;100349.44;5061940;28;20188;-74
2023/12/16 04:31:13;;;;;;;12.25;11.05;;;;;;;6.37;85.76;100353.78;5063951;28;20223;-74
2023/12/16 04:33:40;;;;;;;10.75;9.85;;;;;;;6.39;85.20;100343.75;5060535;28;20208;-74
2023/12/16 04:36:13;;;;;;;10.65;9.65;;;;;;;6.32;85.81;100355.09;5063719;28;20200;-74
2023/12/16 04:38:39;;;;;;;11.00;9.90;;;;;;;6.45;85.20;100345.13;5062350;28;20230;-74
2023/12/16 04:41:07;;;;;;;10.50;9.52;;;;;;;6.28;85.64;100342.84;5074194;28;20196;-74
2023/12/16 04:43:34;;;;;;;10.25;9.32;;;;;;;6.41;85.22;100349.00;5097816;28;20222;-74
2023/12/16 04:46:01;;;;;;;10.57;9.68;;;;;;;6.49;84.65;100351.97;5094105;28;20203;-74
2023/12/16 04:48:28;;;;;;;11.07;10.07;;;;;;;6.35;84.51;100346.78;5062239;28;20206;-74
2023/12/16 04:50:54;;;;;;;9.95;9.07;;;;;;;6.20;85.83;100343.44;5062732;28;20203;-74
2023/12/16 04:53:20;;;;;;;9.88;8.98;;;;;;;6.40;84.85;100344.63;5064170;28;20203;-74
2023/12/16 04:55:50;;;;;;;10.40;9.50;;;;;;;6.31;85.37;100346.16;5063652;28;20202;-73
2023/12/16 04:58:19;;;;;;;9.13;8.32;;;;;;;5.93;87.02;100341.03;5081315;28;20209;-73
2023/12/16 05:00:45;;;;;;;10.15;9.15;;;;;;;5.84;87.55;100333.66;5062140;28;20203;-74
2023/12/16 05:03:12;;;;;;;9.77;8.98;;;;;;;6.19;86.08;100333.66;5045267;28;20188;-75
2023/12/16 05:05:38;;;;;;;10.48;9.63;;;;;;;6.30;85.15;100339.06;5046735;28;20192;-74
2023/12/16 05:08:05;;;;;;;9.23;8.45;;;;;;;6.11;86.56;100344.16;5062401;28;20653;-74
2023/12/16 05:10:31;;;;;;;10.10;9.15;;;;;;;6.09;86.80;100350.63;5080759;28;20200;-74
2023/12/16 05:12:58;;;;;;;10.73;9.73;;;;;;;6.23;85.99;100353.09;5045157;28;20204;-74
2023/12/16 05:15:26;;;;;;;9.43;8.63;;;;;;;6.06;86.50;100352.56;5045873;28;20218;-74
2023/12/16 05:17:52;;;;;;;10.77;9.77;;;;;;;5.92;87.78;100350.06;5063810;28;20204;-74
2023/12/16 05:20:18;;;;;;;10.43;9.43;;;;;;;5.70;88.51;100347.25;5063641;28;20220;-74
2023/12/16 05:22:45;;;;;;;10.02;9.13;;;;;;;5.99;87.46;100350.47;5062172;28;20215;-74
2023/12/16 05:25:11;;;;;;;11.18;10.05;;;;;;;6.06;87.00;100352.56;5027291;28;20558;-74
2023/12/16 05:27:38;;;;;;;9.38;8.27;;;;;;;5.92;87.63;100355.44;5062845;28;20210;-74
2023/12/16 05:30:10;;;;;;;9.75;8.75;;;;;;;5.98;87.64;100356.81;5062489;28;20214;-74
2023/12/16 05:32:38;;;;;;;9.43;8.60;;;;;;;5.80;88.25;100361.72;5069476;28;20203;-75
2023/12/16 05:35:06;;;;;;;11.45;8.85;;;;;;;5.65;89.63;100365.53;5060948;28;20265;-74
2023/12/16 05:37:33;;;;;;;10.45;8.85;;;;;;;5.58;90.36;100366.94;5060922;28;20200;-74
2023/12/16 05:39:59;;;;;;;9.85;8.85;;;;;;;5.89;89.17;100361.03;5044798;28;20689;-75
2023/12/16 05:42:26;;;;;;;9.60;8.80;;;;;;;6.06;88.21;100357.09;5077646;28;20215;-74
2023/12/16 05:44:54;;;;;;;9.80;8.90;;;;;;;5.96;88.60;100356.91;5061827;28;20551;-74
2023/12/16 05:47:20;;;;;;;9.63;8.43;;;;;;;6.14;87.72;100361.91;5062744;28;20287;-75
2023/12/16 05:49:48;;;;;;;8.55;7.80;;;;;;;6.16;87.55;100362.63;5062034;28;20649;-75
2023/12/16 05:52:15;;;;;;;9.55;8.65;;;;;;;5.98;87.96;100356.81;5060238;28;20211;-75
2023/12/16 05:54:42;;;;;;;8.98;8.18;;;;;;;6.22;87.36;100359.44;5069035;28;20204;-75
2023/12/16 05:57:08;;;;;;;8.98;8.13;;;;;;;6.01;87.93;100352.06;5060600;28;20196;-74
2023/12/16 05:59:35;;;;;;;8.93;8.13;;;;;;;6.07;87.82;100356.13;5061375;28;20242;-74
2023/12/16 06:02:02;;;;;;;8.63;7.93;;;;;;;6.17;87.12;100358.97;5044297;28;20207;-75
2023/12/16 06:04:29;;;;;;;9.15;8.35;;;;;;;5.93;87.79;100358.97;5060857;28;20295;-75
2023/12/16 06:06:57;;;;;;;9.32;8.45;;;;;;;6.03;87.35;100363.56;5060695;28;20256;-74
2023/12/16 06:09:24;;;;;;;9.25;8.40;;;;;;;5.85;87.51;100364.06;5075792;28;20203;-74
2023/12/16 06:11:50;;;;;;;8.90;8.00;;;;;;;6.00;86.89;100358.41;5094332;28;20196;-74
2023/12/16 06:14:17;;;;;;;6.53;5.85;;;;;;;6.11;87.72;100375.56;5075263;28;20544;-77
2023/12/16 06:16:43;;;;;;;5.55;5.13;;;;;;;7.06;84.82;100365.34;5046399;28;20208;-79
2023/12/16 06:19:10;;;;;;;8.10;7.50;;;;;;;6.66;83.25;100378.41;5060901;28;20215;-77
2023/12/16 06:21:37;;;;;;;7.35;6.75;;;;;;;6.31;83.91;100373.06;5058979;28;20212;-75
2023/12/16 06:24:08;;;;;;;7.88;7.18;;;;;;;5.99;83.68;100378.19;5043641;28;20208;-77
2023/12/16 06:26:35;;;;;;;6.72;6.20;;;;;;;6.07;83.81;100380.31;5084263;28;20206;-76
2023/12/16 06:29:02;;;;;;;7.10;6.40;;;;;;;5.88;83.85;100380.78;5066895;28;20693;-77
2023/12/16 06:31:29;;;;;;;6.85;6.25;;;;;;;5.79;83.83;100380.63;5067658;28;20214;-77
2023/12/16 06:33:56;;;;;;;5.80;5.38;;;;;;;5.71;84.09;100383.88;5081315;28;20286;-72
2023/12/16 06:36:22;;;;;;;7.25;5.80;;;;;;;5.99;83.33;100388.09;5082062;28;21433;-78
2023/12/16 06:38:49;;;;;;;5.78;5.38;;;;;;;6.09;83.66;100399.00;5063481;28;20219;-78
2023/12/16 06:41:17;;;;;;;7.45;6.75;;;;;;;6.33;82.05;100391.78;5064056;28;20262;-77
2023/12/16 06:43:44;;;;;;;6.25;5.75;;;;;;;6.33;81.93;100397.16;5109236;28;20264;-77
2023/12/16 06:46:10;;;;;;;6.55;6.05;;;;;;;6.11;82.55;100397.06;5081291;28;20665;-79
2023/12/16 06:48:37;;;;;;;6.72;6.03;;;;;;;5.94;84.50;100396.50;5065234;28;20263;-78
2023/12/16 06:51:04;;;;;;;8.45;7.38;;;;;;;6.08;84.12;100398.16;5097000;28;20305;-78
2023/12/16 06:53:33;;;;;;;7.90;7.22;;;;;;;5.95;84.66;100395.53;5080399;28;20248;-77
2023/12/16 06:56:00;;;;;;;7.75;7.10;;;;;;;5.96;84.24;100391.84;5063650;28;20216;-77
2023/12/16 06:58:28;;;;;;;7.65;6.95;;;;;;;5.54;86.74;100397.69;5077792;28;20259;-77
2023/12/16 07:00:55;;;;;;;8.27;7.50;;;;;;;5.74;85.41;100394.41;5063317;28;20223;-78
2023/12/16 07:03:21;;;;;;;7.15;6.45;;;;;;;5.58;85.79;100389.28;5093818;28;20226;-78
2023/12/16 07:05:48;;;;;;;6.70;6.10;;;;;;;5.49;85.48;100394.50;5059160;28;20255;-78
2023/12/16 07:08:14;;;;;;;7.38;6.68;;;;;;;5.48;85.70;100399.00;5076515;28;20259;-78
2023/12/16 07:10:41;;;;;;;6.82;6.18;;;;;;;5.39;86.31;100391.63;5071799;28;20204;-78
2023/12/16 07:13:09;;;;;;;8.18;6.57;;;;;;;5.28;86.36;100402.25;5090552;28;20268;-77
2023/12/16 07:15:38;;;;;;;7.63;6.93;;;;;;;5.08;86.96;100411.75;5075215;28;20196;-77
2023/12/16 07:18:04;;;;;;;7.15;6.50;;;;;;;5.33;86.26;100409.03;5057490;28;20575;-78
2023/12/16 07:20:32;;;;;;;6.97;6.28;;;;;;;5.38;85.61;100400.63;5076358;28;20226;-77
2023/12/16 07:22:59;;;;;;;6.78;6.28;;;;;;;5.34;85.45;100410.75;5077156;28;20193;-78
2023/12/16 07:25:25;;;;;;;6.90;6.30;;;;;;;5.50;84.71;100406.97;5074071;28;20206;-78
2023/12/16 07:27:53;;;;;;;6.38;5.75;;;;;;;5.25;84.94;100407.84;5042494;28;20212;-79
2023/12/16 07:30:20;;;;;;;7.00;6.40;;;;;;;5.23;85.19;100407.97;5071510;28;20204;-77
2023/12/16 07:32:48;;;;;;;6.53;6.03;;;;;;;5.28;85.13;100416.53;5090481;28;20287;-77
2023/12/16 07:35:15;;;;;;;6.38;5.78;;;;;;;5.09;85.61;100416.16;5078834;28;20276;-78
2023/12/16 07:37:43;;;;;;;7.65;6.85;;;;;;;5.02;85.53;100414.88;5092750;28;20197;-76
2023/12/16 07:40:11;;;;;;;7.28;6.68;;;;;;;4.91;86.35;100420.13;5049544;28;20227;-72
2023/12/16 07:42:38;;;;;;;6.60;6.00;;;;;;;4.89;86.65;100422.03;5091217;28;20696;-71
2023/12/16 07:45:06;;;;;;;6.95;6.25;;;;;;;5.02;85.74;100422.91;5077393;28;20207;-76
2023/12/16 07:47:34;;;;;;;6.28;5.68;;;;;;;5.13;85.41;100420.34;5063996;28;20201;-77
2023/12/16 07:50:04;;;;;;;6.47;5.97;;;;;;;5.30;84.47;100425.34;5053833;28;20188;-77
2023/12/16 07:52:30;;;;;;;7.10;6.40;;;;;;;5.25;84.52;100435.56;5066634;28;20204;-75
2023/12/16 07:54:57;;;;;;;6.45;5.95;;;;;;;5.47;83.68;100434.88;5070770;28;20196;-75
2023/12/16 07:57:23;;;;;;;7.68;7.00;;;;;;;5.44;84.07;100442.31;5074826;28;20262;-76
2023/12/16 07:59:50;;;;;;;6.80;6.30;;;;;;;5.55;83.16;100437.00;5083010;28;20224;-77
2023/12/16 08:02:17;;;;;;;6.43;5.88;;;;;;;5.56;83.24;100430.66;5062522;28;20201;-76
2023/12/16 08:04:43;;;;;;;6.88;6.25;;;;;;;5.77;82.57;100444.38;5068898;28;20230;-76
2023/12/16 08:07:18;;;;;;;6.05;5.65;;;;;;;5.86;81.62;100441.84;5068104;28;20199;-76
2023/12/16 08:09:44;;;;;;;6.63;6.13;;;;;;;5.81;81.65;100444.03;5083820;28;20821;-75
2023/12/16 08:12:16;;;;;;;7.22;6.55;;;;;;;5.71;81.88;100446.53;5068917;28;20198;-77
2023/12/16 08:14:43;;;;;;;8.00;6.00;;;;;;;5.55;81.85;100466.53;5066332;28;20577;-76
2023/12/16 08:17:09;;;;;;;5.53;5.03;;;;;;;5.26;82.39;100461.44;5065427;28;20196;-77
2023/12/16 08:19:36;;;;;;;5.25;4.85;;;;;;;5.51;82.50;100465.06;5067375;28;20192;-77
2023/12/16 08:22:03;;;;;;;5.63;5.13;;;;;;;5.70;81.05;100460.06;5046760;28;20604;-77
2023/12/16 08:24:32;;;;;;;4.97;4.57;;;;;;;5.54;81.77;100464.81;5065720;28;20251;-77
2023/12/16 08:26:58;;;;;;;6.00;5.40;;;;;;;5.62;81.46;100465.13;5097396;28;20269;-77
2023/12/16 08:29:25;;;;;;;5.82;5.35;;;;;;;5.71;81.33;100459.09;5082570;28;20210;-77
2023/12/16 08:31:52;;;;;;;5.90;5.40;;;;;;;5.39;81.60;100458.75;5064576;28;20215;-77
2023/12/16 08:34:19;;;;;;;6.63;5.60;;;;;;;5.54;81.43;100468.38;5098620;28;20199;-77
2023/12/16 08:36:48;;;;;;;6.55;4.95;;;;;;;5.51;81.43;100467.75;5062460;28;20673;-77
2023/12/16 08:39:15;;;;;;;5.68;5.18;;;;;;;5.68;81.52;100470.06;5062652;28;20214;-77
2023/12/16 08:41:43;;;;;;;5.90;5.40;;;;;;;5.77;82.58;100479.31;5061009;28;20331;-77
2023/12/16 08:44:09;;;;;;;6.18;5.68;;;;;;;5.89;81.22;100479.28;5081587;28;20204;-77
2023/12/16 08:46:40;;;;;;;5.88;5.38;;;;;;;5.85;81.28;100488.50;5070720;28;20788;-77
2023/12/16 08:49:07;;;;;;;6.85;6.13;;;;;;;5.70;81.15;100492.31;5046972;28;20294;-77
2023/12/16 08:51:35;;;;;;;5.70;5.30;;;;;;;5.82;81.27;100488.75;5063150;28;20205;-77
2023/12/16 08:54:02;;;;;;;6.50;5.32;;;;;;;5.76;81.48;100491.88;5080684;28;20214;-77
2023/12/16 08:56:28;;;;;;;6.32;5.75;;;;;;;5.59;81.04;100498.44;5064583;28;20204;-77
2023/12/16 08:58:56;;;;;;;6.45;5.85;;;;;;;5.46;82.74;100499.44;5064441;28;20199;-77
2023/12/16 09:01:24;;;;;;;6.40;5.78;;;;;;;5.79;81.81;100493.47;5063430;28;20224;-77
2023/12/16 09:03:50;;;;;;;5.60;5.10;;;;;;;5.89;80.94;100495.41;5065138;28;20211;-76
2023/12/16 09:06:17;;;;;;;5.68;5.18;;;;;;;5.90;81.25;100491.75;5063554;28;20200;-77
2023/12/16 09:08:44;;;;;;;5.30;4.80;;;;;;;6.06;80.54;100489.66;5066883;28;20557;-77
2023/12/16 09:11:11;;;;;;;6.45;5.95;;;;;;;6.18;80.71;100500.47;5049767;28;20204;-77
2023/12/16 09:13:37;;;;;;;5.85;5.25;;;;;;;6.34;80.47;100511.81;5067259;28;20208;-77
2023/12/16 09:16:06;;;;;;;7.57;5.75;;;;;;;6.50;79.88;100512.38;5067337;28;20319;-77
2023/12/16 09:18:32;;;;;;;5.95;5.35;;;;;;;6.57;79.96;100512.78;5064752;28;20197;-77
2023/12/16 09:20:59;;;;;;;6.35;5.75;;;;;;;6.82;78.81;100517.16;5048652;28;20306;-77
2023/12/16 09:23:26;;;;;;;6.10;5.70;;;;;;;6.63;78.71;100512.31;5065093;28;20200;-76
2023/12/16 09:25:53;;;;;;;6.10;5.60;;;;;;;6.58;79.49;100526.09;5064627;28;20265;-75
2023/12/16 09:28:19;;;;;;;6.63;6.03;;;;;;;7.00;77.67;100521.13;5062271;28;20215;-74
2023/12/16 09:30:45;;;;;;;6.63;6.13;;;;;;;6.98;77.74;100523.06;5063391;28;20196;-74
2023/12/16 09:33:13;;;;;;;6.20;5.60;;;;;;;6.96;77.49;100527.72;5045830;28;20203;-74
2023/12/16 09:35:40;;;;;;;6.25;5.75;;;;;;;6.69;78.40;100533.38;5060630;28;20211;-74
2023/12/16 09:38:06;;;;;;;5.97;5.47;;;;;;;6.97;78.08;100537.50;5046373;28;20192;-74
2023/12/16 09:40:33;;;;;;;6.63;6.05;;;;;;;7.07;77.35;100539.38;5058582;28;20222;-74
2023/12/16 09:43:16;;;;;;;6.75;6.25;;;;;;;6.94;77.48;100527.84;5061920;28;20197;-74
2023/12/16 09:45:45;;;;;;;5.80;5.20;;;;;;;6.79;77.73;100528.16;5094740;28;20291;-74
2023/12/16 09:48:14;;;;;;;6.38;5.78;;;;;;;6.81;77.95;100523.53;5044437;28;20196;-74
2023/12/16 09:50:42;;;;;;;7.35;6.05;;;;;;;6.91;78.50;100519.13;5058035;28;20206;-74
2023/12/16 09:53:08;;;;;;;9.25;7.10;;;;;;;6.81;78.16;100516.31;5071913;28;20241;-76
2023/12/16 09:55:35;;;;;;;5.80;5.40;;;;;;;7.27;77.67;100518.97;5080475;28;20204;-76
2023/12/16 09:58:03;;;;;;;6.00;5.50;;;;;;;7.44;75.99;100527.59;5063009;28;20209;-76
2023/12/16 10:00:29;;;;;;;6.93;6.00;;;;;;;7.15;76.09;100517.22;5079212;28;20224;-76
2023/12/16 10:02:57;;;;;;;7.75;6.72;;;;;;;7.10;76.73;100522.16;5079236;28;20199;-76
2023/12/16 10:05:26;;;;;;;6.40;5.75;;;;;;;6.97;77.79;100516.84;5062409;28;20739;-76
2023/12/16 10:07:58;;;;;;;6.22;5.72;;;;;;;7.44;76.82;100514.13;5046778;28;20270;-75
2023/12/16 10:10:24;;;;;;;7.43;6.72;;;;;;;7.89;74.75;100509.56;5062120;28;20200;-76
2023/12/16 10:12:51;;;;;;;7.30;5.80;;;;;;;8.01;73.99;100506.75;5080824;28;20203;-76
2023/12/16 10:15:29;;;;;;;7.18;6.07;;;;;;;8.02;73.62;100504.91;5058685;28;20202;-76
2023/12/16 10:17:55;;;;;;;6.57;6.07;;;;;;;7.79;74.97;100508.59;5069365;28;20561;-76
2023/12/16 10:20:22;;;;;;;6.93;6.25;;;;;;;7.59;75.29;100510.19;5058682;28;20316;-76
2023/12/16 10:22:50;;;;;;;7.68;6.95;;;;;;;7.76;74.75;100507.03;5027697;28;20684;-76
2023/12/16 10:25:18;;;;;;;7.20;6.50;;;;;;;8.18;73.66;100501.78;5080066;28;20247;-76
2023/12/16 10:27:44;;;;;;;6.45;5.95;;;;;;;8.09;73.82;100485.41;5061788;28;20277;-76
2023/12/16 10:30:12;;;;;;;6.78;6.18;;;;;;;8.35;72.61;100485.97;5062329;28;20291;-76
2023/12/16 10:32:39;;;;;;;6.60;6.00;;;;;;;8.50;71.88;100478.41;5061810;28;20603;-76
2023/12/16 10:35:06;;;;;;;7.60;6.90;;;;;;;8.36;73.34;100495.78;5061572;28;20208;-76
2023/12/16 10:37:33;;;;;;;8.23;7.30;;;;;;;8.19;72.96;100506.19;5075670;28;20200;-76
2023/12/16 10:40:01;;;;;;;8.15;7.45;;;;;;;8.11;72.81;100498.75;5061660;28;20210;-76
2023/12/16 10:42:28;;;;;;;9.77;7.70;;;;;;;8.29;73.26;100489.13;5062398;28;20234;-76
2023/12/16 10:44:55;;;;;;;6.90;6.30;;;;;;;8.07;72.39;100481.97;5062858;28;20556;-77
2023/12/16 10:47:25;;;;;;;8.73;7.82;;;;;;;7.70;72.90;100480.56;5046630;28;20203;-73
2023/12/16 10:49:53;;;;;;;10.57;7.63;;;;;;;8.16;72.50;100479.47;5060460;28;20296;-76
2023/12/16 10:52:21;;;;;;;9.32;7.93;;;;;;;8.23;72.08;100481.53;5063341;28;20232;-74
2023/12/16 10:54:49;;;;;;;8.32;7.50;;;;;;;8.30;71.85;100482.75;5058002;28;20192;-74
2023/12/16 10:57:27;;;;;;;7.90;7.20;;;;;;;8.72;70.47;100478.34;5061221;28;20231;-75
2023/12/16 10:59:59;;;;;;;7.57;6.78;;;;;;;9.18;69.58;100477.06;5061942;28;20326;-74
2023/12/16 11:02:28;;;;;;;7.78;7.07;;;;;;;9.22;68.13;100473.13;5096333;28;20576;-74
2023/12/16 11:04:59;;;;;;;7.53;6.85;;;;;;;9.56;68.08;100475.56;5079066;28;20212;-73
2023/12/16 11:07:26;;;;;;;6.93;6.28;;;;;;;9.44;67.67;100472.94;5059372;28;20204;-74
2023/12/16 11:09:53;;;;;;;6.50;5.90;;;;;;;10.05;65.26;100451.25;5062138;28;20274;-76
2023/12/16 11:12:22;;;;;;;8.35;6.60;;;;;;;9.78;65.92;100461.84;5064268;28;20628;-76
2023/12/16 11:14:48;;;;;;;7.45;6.65;;;;;;;10.13;66.09;100463.19;5049432;28;20203;-75
2023/12/16 11:17:19;;;;;;;7.90;6.82;;;;;;;10.01;66.11;100463.34;5065325;28;20725;-76
2023/12/16 11:20:01;;;;;;;7.25;6.47;;;;;;;9.88;65.42;100451.91;5067738;28;20216;-76
2023/12/16 11:22:28;;;;;;;8.85;7.45;;;;;;;10.17;65.40;100460.09;5069912;28;20580;-75
2023/12/16 11:24:57;;;;;;;9.10;7.80;;;;;;;10.11;65.07;100472.31;5067563;28;20210;-76
2023/12/16 11:27:27;;;;;;;7.43;6.70;;;;;;;10.13;65.36;100457.78;5066891;28;20200;-75
2023/12/16 11:29:54;;;;;;;7.20;6.60;;;;;;;10.27;64.26;100460.13;5068342;28;20759;-76